createdAt,value
2018-03-07T00:00:01.602Z,19.77
2018-03-07T00:02:29.078Z,16.50
2018-03-07T00:04:56.579Z,18.40
2018-03-07T00:07:24.053Z,17.60
2018-03-07T00:09:51.542Z,18.00
2018-03-07T00:12:19.805Z,19.10
2018-03-07T00:14:47.320Z,17.90
2018-03-07T00:17:14.768Z,19.27
2018-03-07T00:19:43.032Z,17.67
2018-03-07T00:22:10.552Z,17.93
2018-03-07T00:24:38.009Z,18.03
2018-03-07T00:27:05.500Z,17.03
2018-03-07T00:29:32.972Z,19.00
2018-03-07T00:32:01.218Z,17.90
2018-03-07T00:34:28.689Z,16.20
2018-03-07T00:36:56.176Z,15.60
2018-03-07T00:39:24.410Z,15.93
2018-03-07T00:41:51.937Z,16.13
2018-03-07T00:44:19.461Z,15.57
2018-03-07T00:46:47.700Z,14.60
2018-03-07T00:49:15.181Z,15.67
2018-03-07T00:51:42.661Z,15.00
2018-03-07T00:54:10.928Z,15.53
2018-03-07T00:56:39.193Z,16.83
2018-03-07T00:59:06.664Z,16.37
2018-03-07T01:01:34.965Z,15.40
2018-03-07T01:04:02.456Z,16.53
2018-03-07T01:06:29.945Z,14.47
2018-03-07T01:08:57.420Z,15.03
2018-03-07T01:11:25.713Z,14.60
2018-03-07T01:13:53.952Z,13.87
2018-03-07T01:16:22.197Z,14.00
2018-03-07T01:18:49.693Z,13.80
2018-03-07T01:21:17.169Z,12.83
2018-03-07T01:23:45.409Z,12.40
2018-03-07T01:26:12.915Z,13.23
2018-03-07T01:28:41.149Z,13.70
2018-03-07T01:31:08.615Z,12.40
2018-03-07T01:33:36.128Z,12.30
2018-03-07T01:36:03.596Z,10.97
2018-03-07T01:38:31.073Z,12.73
2018-03-07T01:40:58.555Z,11.80
2018-03-07T01:43:26.029Z,10.03
2018-03-07T01:45:53.545Z,11.93
2018-03-07T01:48:21.047Z,10.50
2018-03-07T01:50:48.516Z,9.07
2018-03-07T01:53:16.775Z,10.63
2018-03-07T01:55:44.248Z,10.90
2018-03-07T01:58:12.504Z,9.90
2018-03-07T02:00:39.968Z,9.73
2018-03-07T02:03:07.436Z,9.03
2018-03-07T02:05:35.697Z,9.60
2018-03-07T02:08:03.206Z,8.30
2018-03-07T02:10:31.418Z,8.07
2018-03-07T02:12:58.908Z,7.40
2018-03-07T02:15:26.376Z,6.90
2018-03-07T02:17:54.669Z,7.50
2018-03-07T02:20:22.112Z,7.27
2018-03-07T02:22:50.350Z,7.70
2018-03-07T02:25:17.817Z,8.30
2018-03-07T02:27:45.292Z,7.00
2018-03-07T02:30:12.761Z,6.80
2018-03-07T02:32:41.038Z,6.87
2018-03-07T02:35:08.500Z,6.70
2018-03-07T02:37:36.728Z,6.20
2018-03-07T02:40:04.200Z,7.13
2018-03-07T02:42:31.666Z,6.47
2018-03-07T02:44:59.159Z,6.83
2018-03-07T02:47:27.397Z,6.83
2018-03-07T02:49:54.876Z,7.67
2018-03-07T02:52:23.126Z,6.77
2018-03-07T02:54:50.592Z,6.63
2018-03-07T02:57:18.079Z,6.70
2018-03-07T02:59:46.315Z,7.07
2018-03-07T03:02:13.848Z,5.77
2018-03-07T03:04:41.344Z,6.20
2018-03-07T03:07:08.808Z,5.97
2018-03-07T03:09:37.045Z,5.97
2018-03-07T03:12:04.536Z,6.03
2018-03-07T03:14:32.021Z,6.47
2018-03-07T03:17:00.256Z,7.57
2018-03-07T03:19:27.788Z,6.40
2018-03-07T03:21:55.260Z,7.50
2018-03-07T03:24:22.725Z,5.70
2018-03-07T03:26:50.216Z,5.60
2018-03-07T03:29:17.681Z,6.30
2018-03-07T03:31:45.149Z,6.07
2018-03-07T03:34:13.409Z,6.17
2018-03-07T03:36:40.876Z,5.70
2018-03-07T03:39:08.341Z,5.07
2018-03-07T03:41:35.841Z,4.90
2018-03-07T03:44:03.309Z,5.10
2018-03-07T03:46:30.783Z,5.07
2018-03-07T03:48:58.268Z,5.63
2018-03-07T03:51:25.736Z,4.63
2018-03-07T03:53:54.005Z,4.60
2018-03-07T03:56:21.521Z,4.13
2018-03-07T03:58:48.980Z,4.37
2018-03-07T04:01:16.493Z,4.13
2018-03-07T04:03:44.763Z,3.97
2018-03-07T04:06:12.228Z,4.40
2018-03-07T04:08:40.468Z,4.03
2018-03-07T04:11:07.955Z,4.23
2018-03-07T04:13:35.426Z,4.53
2018-03-07T04:16:03.659Z,4.90
2018-03-07T04:18:31.149Z,5.07
2018-03-07T04:20:58.611Z,4.20
2018-03-07T04:23:26.080Z,4.00
2018-03-07T04:25:54.349Z,4.27
2018-03-07T04:28:21.818Z,4.20
2018-03-07T04:30:50.053Z,3.90
2018-03-07T04:33:17.545Z,3.60
2018-03-07T04:35:45.784Z,3.80
2018-03-07T04:38:13.248Z,4.03
2018-03-07T04:40:40.791Z,4.20
2018-03-07T04:43:08.236Z,4.20
2018-03-07T04:45:35.701Z,3.90
2018-03-07T04:48:03.181Z,3.50
2018-03-07T04:50:30.676Z,3.03
2018-03-07T04:52:58.936Z,4.07
2018-03-07T04:55:26.404Z,3.50
2018-03-07T04:57:53.888Z,3.47
2018-03-07T05:00:22.141Z,3.80
2018-03-07T05:02:49.621Z,10.60
2018-03-07T05:05:17.098Z,3.60
2018-03-07T05:07:44.592Z,9.60
2018-03-07T05:10:12.060Z,3.00
2018-03-07T05:12:39.528Z,2.90
2018-03-07T05:15:07.013Z,3.70
2018-03-07T05:17:35.252Z,3.17
2018-03-07T05:20:02.728Z,2.90
2018-03-07T05:22:30.219Z,2.60
2018-03-07T05:24:57.752Z,3.23
2018-03-07T05:27:26.005Z,2.77
2018-03-07T05:29:53.486Z,3.47
2018-03-07T05:32:21.761Z,3.47
2018-03-07T05:34:49.254Z,4.60
2018-03-07T05:37:16.776Z,4.20
2018-03-07T05:39:44.244Z,4.90
2018-03-07T05:42:12.489Z,4.57
2018-03-07T05:44:39.953Z,3.73
2018-03-07T05:47:07.436Z,4.10
2018-03-07T05:49:35.696Z,3.13
2018-03-07T05:52:03.165Z,4.23
2018-03-07T05:54:30.636Z,3.77
2018-03-07T05:56:58.877Z,4.63
2018-03-07T05:59:26.348Z,122.33
2018-03-07T06:01:54.098Z,7.40
2018-03-07T06:04:21.570Z,5.40
2018-03-07T06:06:49.037Z,3.50
2018-03-07T06:09:16.509Z,4.20
2018-03-07T06:11:44.904Z,3.63
2018-03-07T06:14:12.384Z,7.60
2018-03-07T06:16:39.857Z,4.17
2018-03-07T06:19:07.337Z,3.80
2018-03-07T06:21:34.816Z,6.97
2018-03-07T06:24:02.314Z,18.43
2018-03-07T06:26:29.785Z,6.33
2018-03-07T06:28:57.253Z,4.90
2018-03-07T06:31:24.760Z,3.60
2018-03-07T06:33:52.988Z,4.10
2018-03-07T06:36:20.456Z,9.50
2018-03-07T06:38:47.949Z,6.80
2018-03-07T06:41:16.183Z,8.20
2018-03-07T06:43:43.732Z,5.73
2018-03-07T06:46:11.216Z,3.40
2018-03-07T06:48:38.681Z,3.57
2018-03-07T06:51:06.153Z,3.50
2018-03-07T06:53:33.637Z,3.90
2018-03-07T06:56:01.181Z,8.30
2018-03-07T06:58:29.421Z,7.63
2018-03-07T07:00:56.901Z,5.87
2018-03-07T07:03:24.371Z,7.40
2018-03-07T07:05:51.937Z,7.83
2018-03-07T07:08:20.174Z,8.03
2018-03-07T07:10:47.648Z,8.20
2018-03-07T07:13:15.230Z,9.90
2018-03-07T07:15:43.468Z,7.90
2018-03-07T07:18:10.964Z,7.87
2018-03-07T07:20:38.441Z,7.13
2018-03-07T07:23:06.683Z,7.90
2018-03-07T07:25:34.162Z,5.63
2018-03-07T07:28:02.400Z,3.93
2018-03-07T07:30:29.898Z,6.50
2018-03-07T07:32:58.137Z,6.40
2018-03-07T07:35:25.608Z,7.30
2018-03-07T07:37:53.092Z,7.77
2018-03-07T07:40:21.323Z,9.20
2018-03-07T07:42:48.821Z,8.57
2018-03-07T07:45:17.803Z,8.07
2018-03-07T07:47:46.785Z,7.43
2018-03-07T07:50:14.272Z,9.73
2018-03-07T07:52:42.516Z,9.87
2018-03-07T07:55:10.021Z,10.20
2018-03-07T07:57:38.307Z,10.27
2018-03-07T08:00:05.784Z,10.40
2018-03-07T08:02:33.293Z,8.80
2018-03-07T08:05:00.761Z,11.17
2018-03-07T08:07:29.001Z,4.70
2018-03-07T08:09:56.896Z,5.80
2018-03-07T08:12:25.431Z,24.30
2018-03-07T08:14:54.001Z,11.90
2018-03-07T08:17:22.413Z,11.77
2018-03-07T08:19:49.893Z,15.10
2018-03-07T08:22:17.371Z,9.43
2018-03-07T08:24:45.632Z,30.53
2018-03-07T08:27:13.104Z,24.03
2018-03-07T08:29:41.381Z,10.13
2018-03-07T08:32:08.878Z,12.23
2018-03-07T08:34:36.410Z,11.07
2018-03-07T08:37:04.644Z,8.70
2018-03-07T08:39:32.141Z,9.97
2018-03-07T08:42:00.413Z,10.63
2018-03-07T08:44:27.976Z,10.20
2018-03-07T08:46:56.253Z,6.60
2018-03-07T08:49:24.531Z,5.77
2018-03-07T08:51:52.764Z,6.17
2018-03-07T08:54:20.261Z,6.10
2018-03-07T08:56:47.729Z,6.10
2018-03-07T08:59:15.957Z,6.20
2018-03-07T09:01:43.441Z,5.77
2018-03-07T09:04:10.921Z,6.10
2018-03-07T09:06:39.173Z,5.40
2018-03-07T09:09:06.649Z,4.47
2018-03-07T09:11:34.117Z,5.40
2018-03-07T09:14:02.431Z,3.63
2018-03-07T09:16:29.913Z,3.13
2018-03-07T09:18:57.384Z,4.80
2018-03-07T09:21:24.868Z,3.20
2018-03-07T09:23:53.100Z,3.10
2018-03-07T09:26:20.568Z,4.40
2018-03-07T09:28:48.156Z,3.60
2018-03-07T09:31:15.626Z,9.57
2018-03-07T09:33:43.868Z,12.70
2018-03-07T09:36:11.385Z,14.83
2018-03-07T09:38:38.863Z,11.27
2018-03-07T09:41:06.336Z,5.40
2018-03-07T09:43:33.831Z,8.40
2018-03-07T09:46:01.304Z,5.47
2018-03-07T09:48:29.554Z,10.07
2018-03-07T09:50:57.040Z,4.33
2018-03-07T09:53:25.277Z,5.40
2018-03-07T09:55:52.749Z,3.07
2018-03-07T09:58:20.242Z,5.60
2018-03-07T10:00:48.507Z,2.00
2018-03-07T10:03:15.966Z,1.80
2018-03-07T10:08:26.185Z,5.70
2018-03-07T10:10:53.680Z,13.80
2018-03-07T10:13:21.157Z,5.30
2018-03-07T10:15:49.435Z,3.00
2018-03-07T10:18:17.682Z,5.10
2018-03-07T10:20:45.174Z,6.70
2018-03-07T10:23:13.445Z,4.00
2018-03-07T10:25:41.702Z,5.67
2018-03-07T10:28:09.180Z,5.00
2018-03-07T10:30:37.438Z,5.37
2018-03-07T10:33:10.586Z,6.37
2018-03-07T10:35:38.109Z,5.20
2018-03-07T10:38:06.385Z,6.93
2018-03-07T10:40:34.622Z,4.37
2018-03-07T10:43:02.119Z,3.57
2018-03-07T10:45:30.368Z,4.43
2018-03-07T10:47:57.860Z,4.80
2018-03-07T10:50:26.101Z,2.70
2018-03-07T10:52:53.573Z,3.20
2018-03-07T10:55:21.196Z,1.73
2018-03-07T10:57:48.670Z,3.20
2018-03-07T11:00:21.978Z,3.37
2018-03-07T11:02:49.454Z,3.27
2018-03-07T11:05:16.920Z,2.60
2018-03-07T11:07:44.415Z,1.60
2018-03-07T11:10:11.900Z,1.97
2018-03-07T11:12:39.398Z,3.90
2018-03-07T11:15:07.666Z,2.20
2018-03-07T11:17:35.233Z,2.40
2018-03-07T11:20:02.706Z,2.20
2018-03-07T11:22:30.957Z,2.37
2018-03-07T11:24:59.201Z,1.87
2018-03-07T11:27:26.720Z,1.13
2018-03-07T11:29:54.957Z,1.80
2018-03-07T11:32:22.429Z,2.10
2018-03-07T11:34:49.949Z,2.37
2018-03-07T11:37:17.425Z,1.50
2018-03-07T11:39:44.919Z,1.80
2018-03-07T11:42:13.186Z,1.43
2018-03-07T11:44:40.660Z,1.30
2018-03-07T11:47:08.933Z,1.30
2018-03-07T11:49:37.194Z,1.40
2018-03-07T11:52:06.173Z,2.03
2018-03-07T11:54:33.650Z,1.93
2018-03-07T11:57:01.152Z,1.40
2018-03-07T11:59:28.623Z,2.43
2018-03-07T12:01:56.097Z,2.17
2018-03-07T12:04:23.580Z,1.50
2018-03-07T12:06:51.053Z,1.90
2018-03-07T12:09:20.035Z,2.57
2018-03-07T12:11:47.532Z,1.50
2018-03-07T12:14:15.004Z,2.90
2018-03-07T12:16:42.489Z,2.13
2018-03-07T12:19:10.089Z,3.20
2018-03-07T12:21:38.333Z,2.60
2018-03-07T12:24:05.800Z,1.63
2018-03-07T12:26:33.293Z,1.53
2018-03-07T12:29:01.549Z,2.20
2018-03-07T12:31:29.020Z,1.90
2018-03-07T12:33:57.282Z,1.90
2018-03-07T12:36:25.551Z,2.10
2018-03-07T12:38:53.045Z,3.50
2018-03-07T12:41:21.309Z,2.07
2018-03-07T12:43:49.589Z,2.30
2018-03-07T12:46:17.837Z,2.23
2018-03-07T12:48:45.330Z,4.63
2018-03-07T12:51:13.565Z,2.03
2018-03-07T12:53:41.041Z,1.93
2018-03-07T12:56:10.037Z,3.17
2018-03-07T12:58:37.514Z,1.60
2018-03-07T13:01:05.839Z,1.93
2018-03-07T13:03:34.070Z,2.20
2018-03-07T13:06:02.313Z,2.47
2018-03-07T13:08:29.798Z,2.67
2018-03-07T13:10:58.076Z,1.70
2018-03-07T13:13:26.321Z,2.57
2018-03-07T13:15:53.821Z,4.27
2018-03-07T13:18:22.086Z,2.63
2018-03-07T13:20:49.555Z,2.43
2018-03-07T13:23:17.825Z,2.50
2018-03-07T13:25:46.079Z,1.60
2018-03-07T13:28:13.556Z,1.80
2018-03-07T13:30:41.127Z,1.50
2018-03-07T13:33:09.389Z,3.20
2018-03-07T13:35:36.869Z,1.73
2018-03-07T13:38:05.144Z,1.40
2018-03-07T13:40:33.376Z,1.43
2018-03-07T13:43:00.860Z,1.77
2018-03-07T13:45:28.344Z,1.80
2018-03-07T13:47:56.605Z,1.33
2018-03-07T13:50:24.852Z,1.53
2018-03-07T13:52:52.327Z,1.60
2018-03-07T13:55:19.805Z,1.53
2018-03-07T13:57:48.054Z,1.60
2018-03-07T14:00:15.529Z,1.67
2018-03-07T14:02:43.013Z,1.80
2018-03-07T14:05:11.285Z,1.60
2018-03-07T14:07:39.521Z,1.60
2018-03-07T14:10:06.999Z,1.80
2018-03-07T14:12:34.506Z,1.50
2018-03-07T14:15:01.986Z,1.20
2018-03-07T14:17:29.461Z,1.70
2018-03-07T14:19:56.944Z,1.57
2018-03-07T14:22:25.216Z,2.00
2018-03-07T14:24:52.685Z,2.40
2018-03-07T14:27:20.932Z,1.70
2018-03-07T14:29:48.413Z,2.50
2018-03-07T14:32:16.655Z,1.93
2018-03-07T14:34:44.145Z,1.93
2018-03-07T14:37:12.429Z,2.90
2018-03-07T14:39:40.709Z,2.77
2018-03-07T14:42:08.963Z,2.33
2018-03-07T14:44:36.438Z,2.10
2018-03-07T14:47:04.736Z,1.20
2018-03-07T14:49:33.011Z,1.70
2018-03-07T14:52:00.464Z,1.77
2018-03-07T14:54:28.728Z,1.90
2018-03-07T14:56:56.969Z,1.90
2018-03-07T14:59:24.441Z,1.37
2018-03-07T15:01:51.931Z,1.80
2018-03-07T15:04:20.169Z,1.40
2018-03-07T15:06:47.640Z,1.53
2018-03-07T15:09:15.132Z,1.50
2018-03-07T15:11:43.369Z,2.10
2018-03-07T15:14:12.356Z,1.93
2018-03-07T15:16:39.837Z,1.73
2018-03-07T15:19:07.316Z,1.13
2018-03-07T15:21:35.573Z,3.83
2018-03-07T15:24:03.041Z,1.30
2018-03-07T15:26:31.282Z,1.90
2018-03-07T15:28:58.757Z,1.73
2018-03-07T15:31:26.230Z,2.30
2018-03-07T15:33:54.497Z,1.50
2018-03-07T15:36:21.968Z,2.03
2018-03-07T15:38:49.435Z,1.57
2018-03-07T15:41:17.697Z,2.50
2018-03-07T15:43:45.168Z,2.00
2018-03-07T15:46:13.418Z,25.10
2018-03-07T15:48:40.916Z,35.40
2018-03-07T15:51:09.170Z,42.27
2018-03-07T15:53:36.732Z,40.20
2018-03-07T15:56:04.246Z,40.70
2018-03-07T15:58:31.726Z,44.40
2018-03-07T16:00:59.208Z,43.20
2018-03-07T16:03:26.709Z,44.30
2018-03-07T16:05:54.200Z,40.77
2018-03-07T16:08:21.685Z,44.30
2018-03-07T16:10:49.193Z,44.70
2018-03-07T16:13:16.672Z,43.73
2018-03-07T16:15:44.162Z,179.10
2018-03-07T16:18:11.701Z,207.87
2018-03-07T16:20:39.195Z,126.53
2018-03-07T16:23:07.443Z,109.23
2018-03-07T16:25:34.953Z,89.47
2018-03-07T16:28:02.438Z,55.53
2018-03-07T16:30:29.916Z,47.53
2018-03-07T16:32:57.412Z,44.30
2018-03-07T16:35:25.652Z,47.03
2018-03-07T16:37:53.132Z,46.00
2018-03-07T16:40:20.623Z,48.83
2018-03-07T16:42:48.109Z,47.43
2018-03-07T16:45:15.600Z,49.43
2018-03-07T16:47:43.072Z,46.20
2018-03-07T16:50:11.318Z,48.23
2018-03-07T16:52:38.836Z,46.90
2018-03-07T16:55:06.317Z,49.07
2018-03-07T16:57:33.792Z,51.67
2018-03-07T17:00:01.329Z,45.87
2018-03-07T17:02:28.807Z,48.90
2018-03-07T17:04:56.288Z,49.93
2018-03-07T17:07:23.788Z,50.30
2018-03-07T17:09:51.268Z,48.53
2018-03-07T17:12:18.744Z,48.13
2018-03-07T17:14:46.240Z,48.17
2018-03-07T17:17:14.485Z,48.63
2018-03-07T17:19:41.957Z,48.80
2018-03-07T17:22:09.441Z,47.57
2018-03-07T17:24:37.696Z,49.37
2018-03-07T17:27:05.194Z,43.60
2018-03-07T17:29:32.705Z,43.87
2018-03-07T17:32:00.188Z,60.10
2018-03-07T17:34:28.461Z,105.30
2018-03-07T17:36:56.020Z,47.00
2018-03-07T17:39:23.493Z,44.30
2018-03-07T17:41:51.756Z,43.83
2018-03-07T17:44:20.036Z,47.00
2018-03-07T17:46:48.301Z,43.00
2018-03-07T17:49:15.798Z,44.00
2018-03-07T17:51:43.332Z,49.13
2018-03-07T17:54:11.584Z,43.80
2018-03-07T17:56:39.076Z,42.70
2018-03-07T17:59:07.333Z,41.70
2018-03-07T18:01:34.808Z,41.10
2018-03-07T18:04:03.076Z,45.77
2018-03-07T18:06:30.643Z,40.50
2018-03-07T18:08:58.901Z,45.90
2018-03-07T18:11:26.400Z,44.50
2018-03-07T18:13:54.644Z,43.27
2018-03-07T18:16:22.224Z,43.57
2018-03-07T18:18:50.484Z,48.47
2018-03-07T18:21:17.960Z,44.53
2018-03-07T18:23:46.845Z,46.13
2018-03-07T18:26:15.258Z,47.17
2018-03-07T18:28:43.190Z,53.93
2018-03-07T18:31:12.433Z,176.27
2018-03-07T18:33:40.365Z,255.23
2018-03-07T18:36:08.613Z,80.87
2018-03-07T18:38:36.106Z,123.70
2018-03-07T18:41:04.345Z,44.83
2018-03-07T18:43:31.832Z,45.17
2018-03-07T18:46:00.113Z,49.63
2018-03-07T18:48:28.375Z,45.23
2018-03-07T18:50:55.865Z,45.03
2018-03-07T18:53:24.117Z,45.90
2018-03-07T18:55:51.597Z,47.80
2018-03-07T18:58:19.852Z,48.00
2018-03-07T19:00:47.320Z,47.17
2018-03-07T19:03:15.565Z,49.80
2018-03-07T19:05:43.062Z,45.60
2018-03-07T19:08:11.328Z,45.73
2018-03-07T19:10:39.716Z,96.37
2018-03-07T19:13:07.992Z,55.20
2018-03-07T19:15:36.242Z,132.30
2018-03-07T19:18:03.740Z,59.93
2018-03-07T19:20:31.985Z,49.93
2018-03-07T19:22:59.464Z,64.33
2018-03-07T19:25:27.712Z,52.97
2018-03-07T19:27:55.198Z,54.07
2018-03-07T19:30:23.472Z,82.93
2018-03-07T19:32:51.724Z,135.73
2018-03-07T19:35:19.204Z,107.57
2018-03-07T19:37:46.702Z,82.70
2018-03-07T19:40:14.228Z,133.50
2018-03-07T19:42:42.477Z,103.73
2018-03-07T19:45:09.985Z,159.00
2018-03-07T19:47:37.485Z,71.93
2018-03-07T19:50:04.972Z,64.20
2018-03-07T19:52:32.571Z,68.53
2018-03-07T19:55:00.048Z,70.00
2018-03-07T19:57:27.525Z,76.97
2018-03-07T19:59:55.022Z,67.87
2018-03-07T20:02:23.284Z,70.63
2018-03-07T20:04:50.760Z,86.00
2018-03-07T20:07:19.033Z,113.07
2018-03-07T20:09:46.515Z,73.93
2018-03-07T20:12:14.032Z,119.77
2018-03-07T20:14:41.500Z,67.77
2018-03-07T20:17:08.983Z,86.83
2018-03-07T20:19:37.276Z,75.93
2018-03-07T20:22:04.770Z,85.13
2018-03-07T20:24:32.264Z,71.53
2018-03-07T20:27:00.550Z,186.10
2018-03-07T20:29:28.808Z,149.27
2018-03-07T20:31:56.284Z,79.10
2018-03-07T20:34:24.590Z,77.97
2018-03-07T20:36:52.173Z,90.60
2018-03-07T20:39:19.653Z,78.80
2018-03-07T20:41:47.178Z,110.03
2018-03-07T20:44:14.665Z,126.33
2018-03-07T20:46:42.193Z,70.27
2018-03-07T20:49:09.753Z,85.73
2018-03-07T20:51:37.239Z,94.53
2018-03-07T20:54:04.820Z,67.10
2018-03-07T20:56:32.304Z,86.03
2018-03-07T20:59:00.558Z,92.47
2018-03-07T21:01:28.858Z,94.10
2018-03-07T21:03:57.108Z,84.77
2018-03-07T21:06:24.597Z,67.37
2018-03-07T21:08:52.861Z,75.13
2018-03-07T21:11:21.108Z,72.73
2018-03-07T21:13:48.593Z,70.40
2018-03-07T21:16:16.107Z,76.83
2018-03-07T21:18:43.606Z,76.10
2018-03-07T21:21:11.176Z,82.43
2018-03-07T21:23:38.739Z,75.73
2018-03-07T21:26:06.983Z,79.13
2018-03-07T21:28:34.464Z,124.13
2018-03-07T21:31:01.985Z,70.57
2018-03-07T21:33:29.476Z,91.73
2018-03-07T21:35:58.482Z,102.13
2018-03-07T21:38:25.983Z,100.20
2018-03-07T21:40:53.456Z,73.33
2018-03-07T21:43:20.944Z,65.93
2018-03-07T21:45:48.440Z,71.80
2018-03-07T21:48:16.690Z,66.20
2018-03-07T21:50:44.199Z,89.10
2018-03-07T21:53:11.720Z,63.20
2018-03-07T21:55:40.008Z,61.70
2018-03-07T21:58:08.252Z,59.53
2018-03-07T22:00:35.872Z,95.97
2018-03-07T22:03:03.352Z,69.77
2018-03-07T22:05:30.832Z,179.83
2018-03-07T22:07:58.324Z,60.67
2018-03-07T22:10:26.561Z,61.20
2018-03-07T22:12:54.037Z,59.67
2018-03-07T22:15:21.543Z,60.10
2018-03-07T22:17:49.025Z,79.73
2018-03-07T22:20:16.505Z,62.50
2018-03-07T22:22:44.003Z,55.67
2018-03-07T22:25:11.536Z,53.07
2018-03-07T22:27:39.819Z,58.17
2018-03-07T22:30:08.091Z,58.13
2018-03-07T22:32:35.560Z,55.47
2018-03-07T22:35:03.795Z,55.10
2018-03-07T22:37:31.296Z,151.90
2018-03-07T22:39:59.552Z,201.23
2018-03-07T22:42:28.528Z,83.30
2018-03-07T22:44:56.126Z,113.10
2018-03-07T22:47:24.368Z,64.27
2018-03-07T22:49:51.868Z,118.73
2018-03-07T22:52:20.114Z,81.57
2018-03-07T22:54:47.587Z,65.47
2018-03-07T22:57:15.090Z,71.00
2018-03-07T22:59:42.568Z,131.30
2018-03-07T23:02:10.044Z,65.33
2018-03-07T23:04:37.546Z,54.90
2018-03-07T23:07:05.788Z,54.57
2018-03-07T23:09:33.272Z,64.13
2018-03-07T23:12:01.540Z,57.63
2018-03-07T23:14:29.037Z,60.53
2018-03-07T23:16:56.556Z,51.07
2018-03-07T23:19:24.045Z,48.50
2018-03-07T23:21:51.518Z,49.17
2018-03-07T23:24:18.996Z,45.87
2018-03-07T23:26:46.494Z,48.13
2018-03-07T23:29:14.749Z,46.60
2018-03-07T23:31:42.234Z,47.90
2018-03-07T23:34:10.493Z,44.17
2018-03-07T23:36:37.964Z,45.40
2018-03-07T23:39:06.224Z,44.43
2018-03-07T23:41:33.712Z,46.20
2018-03-07T23:44:01.954Z,42.17
2018-03-07T23:46:29.447Z,45.57
2018-03-07T23:48:57.712Z,42.10
2018-03-07T23:51:25.185Z,44.30
2018-03-07T23:53:53.426Z,45.10
2018-03-07T23:56:20.921Z,44.77
2018-03-07T23:58:49.180Z,43.67
